sensor_id;sensor_type;location;lat;lon;timestamp;temperature;humidity
35129;DHT22;21301;43.626;10.580;2022-11-15T00:01:52;9.00;99.90
35129;DHT22;21301;43.626;10.580;2022-11-15T00:04:36;9.00;99.90
35129;DHT22;21301;43.626;10.580;2022-11-15T00:07:20;9.00;99.90
35129;DHT22;21301;43.626;10.580;2022-11-15T00:10:04;9.00;99.90
35129;DHT22;21301;43.626;10.580;2022-11-15T00:12:49;9.00;99.90
35129;DHT22;21301;43.626;10.580;2022-11-15T00:15:36;9.00;99.90
35129;DHT22;21301;43.626;10.580;2022-11-15T00:18:21;9.00;99.90
35129;DHT22;21301;43.626;10.580;2022-11-15T00:21:07;8.90;99.90
35129;DHT22;21301;43.626;10.580;2022-11-15T00:23:51;8.90;99.90
35129;DHT22;21301;43.626;10.580;2022-11-15T00:26:35;9.00;99.90
35129;DHT22;21301;43.626;10.580;2022-11-15T00:29:20;8.90;99.90
35129;DHT22;21301;43.626;10.580;2022-11-15T00:32:04;8.80;99.90
35129;DHT22;21301;43.626;10.580;2022-11-15T00:34:49;8.80;99.90
35129;DHT22;21301;43.626;10.580;2022-11-15T00:37:33;8.80;99.90
35129;DHT22;21301;43.626;10.580;2022-11-15T00:40:17;8.70;99.90
35129;DHT22;21301;43.626;10.580;2022-11-15T00:43:01;8.70;99.90
35129;DHT22;21301;43.626;10.580;2022-11-15T00:45:45;8.70;99.90
35129;DHT22;21301;43.626;10.580;2022-11-15T00:48:29;8.60;99.90
35129;DHT22;21301;43.626;10.580;2022-11-15T00:51:14;8.60;99.90
35129;DHT22;21301;43.626;10.580;2022-11-15T00:53:58;8.40;99.90
35129;DHT22;21301;43.626;10.580;2022-11-15T00:56:42;8.40;99.90
35129;DHT22;21301;43.626;10.580;2022-11-15T00:59:26;8.40;99.90
35129;DHT22;21301;43.626;10.580;2022-11-15T01:02:11;8.30;99.90
35129;DHT22;21301;43.626;10.580;2022-11-15T01:04:55;8.40;99.90
35129;DHT22;21301;43.626;10.580;2022-11-15T01:07:40;8.40;99.90
35129;DHT22;21301;43.626;10.580;2022-11-15T01:10:24;8.40;99.90
35129;DHT22;21301;43.626;10.580;2022-11-15T01:13:10;8.40;99.90
35129;DHT22;21301;43.626;10.580;2022-11-15T01:15:54;8.40;99.90
35129;DHT22;21301;43.626;10.580;2022-11-15T01:18:40;8.40;99.90
35129;DHT22;21301;43.626;10.580;2022-11-15T01:21:25;8.40;99.90
35129;DHT22;21301;43.626;10.580;2022-11-15T01:24:12;8.40;99.90
35129;DHT22;21301;43.626;10.580;2022-11-15T01:26:57;8.40;99.90
35129;DHT22;21301;43.626;10.580;2022-11-15T01:29:41;8.40;99.90
35129;DHT22;21301;43.626;10.580;2022-11-15T01:32:25;8.40;99.90
35129;DHT22;21301;43.626;10.580;2022-11-15T01:35:09;8.30;99.90
35129;DHT22;21301;43.626;10.580;2022-11-15T01:37:53;8.30;99.90
35129;DHT22;21301;43.626;10.580;2022-11-15T01:40:37;8.30;99.90
35129;DHT22;21301;43.626;10.580;2022-11-15T01:43:30;8.40;99.90
35129;DHT22;21301;43.626;10.580;2022-11-15T01:49:17;8.40;99.90
35129;DHT22;21301;43.626;10.580;2022-11-15T01:52:06;8.30;99.90
35129;DHT22;21301;43.626;10.580;2022-11-15T01:55:02;8.30;99.90
35129;DHT22;21301;43.626;10.580;2022-11-15T01:57:51;8.30;99.90
35129;DHT22;21301;43.626;10.580;2022-11-15T02:00:36;8.30;99.90
35129;DHT22;21301;43.626;10.580;2022-11-15T02:03:25;8.20;99.90
35129;DHT22;21301;43.626;10.580;2022-11-15T02:06:10;8.20;99.90
35129;DHT22;21301;43.626;10.580;2022-11-15T02:08:56;8.20;99.90
35129;DHT22;21301;43.626;10.580;2022-11-15T02:11:41;8.20;99.90
35129;DHT22;21301;43.626;10.580;2022-11-15T02:14:27;8.30;99.90
35129;DHT22;21301;43.626;10.580;2022-11-15T02:32:45;8.30;99.90
35129;DHT22;21301;43.626;10.580;2022-11-15T02:36:02;8.30;99.90
35129;DHT22;21301;43.626;10.580;2022-11-15T02:39:05;8.30;99.90
35129;DHT22;21301;43.626;10.580;2022-11-15T02:42:01;8.30;99.90
35129;DHT22;21301;43.626;10.580;2022-11-15T02:44:47;8.30;99.90
35129;DHT22;21301;43.626;10.580;2022-11-15T02:47:37;8.40;99.90
35129;DHT22;21301;43.626;10.580;2022-11-15T02:50:25;8.40;99.90
35129;DHT22;21301;43.626;10.580;2022-11-15T02:53:11;8.40;99.90
35129;DHT22;21301;43.626;10.580;2022-11-15T02:55:55;8.30;99.90
35129;DHT22;21301;43.626;10.580;2022-11-15T02:59:01;8.30;99.90
35129;DHT22;21301;43.626;10.580;2022-11-15T03:04:59;8.40;99.90
35129;DHT22;21301;43.626;10.580;2022-11-15T03:07:52;8.40;99.90
35129;DHT22;21301;43.626;10.580;2022-11-15T03:11:09;8.40;99.90
35129;DHT22;21301;43.626;10.580;2022-11-15T03:20:13;8.40;99.90
35129;DHT22;21301;43.626;10.580;2022-11-15T03:23:03;8.40;99.90
35129;DHT22;21301;43.626;10.580;2022-11-15T03:25:50;8.40;99.90
35129;DHT22;21301;43.626;10.580;2022-11-15T03:28:46;8.40;99.90
35129;DHT22;21301;43.626;10.580;2022-11-15T03:31:34;8.40;99.90
35129;DHT22;21301;43.626;10.580;2022-11-15T03:40:47;8.40;99.90
35129;DHT22;21301;43.626;10.580;2022-11-15T03:43:41;8.40;99.90
35129;DHT22;21301;43.626;10.580;2022-11-15T03:49:24;8.30;99.90
35129;DHT22;21301;43.626;10.580;2022-11-15T03:52:10;8.40;99.90
35129;DHT22;21301;43.626;10.580;2022-11-15T03:54:56;8.40;99.90
35129;DHT22;21301;43.626;10.580;2022-11-15T03:57:40;8.40;99.90
35129;DHT22;21301;43.626;10.580;2022-11-15T04:00:25;8.40;99.90
35129;DHT22;21301;43.626;10.580;2022-11-15T04:03:09;8.40;99.90
35129;DHT22;21301;43.626;10.580;2022-11-15T04:05:54;8.40;99.90
35129;DHT22;21301;43.626;10.580;2022-11-15T04:08:39;8.30;99.90
35129;DHT22;21301;43.626;10.580;2022-11-15T04:11:23;8.30;99.90
35129;DHT22;21301;43.626;10.580;2022-11-15T04:14:08;8.30;99.90
35129;DHT22;21301;43.626;10.580;2022-11-15T04:16:52;8.30;99.90
35129;DHT22;21301;43.626;10.580;2022-11-15T04:19:36;8.20;99.90
35129;DHT22;21301;43.626;10.580;2022-11-15T04:22:39;8.30;99.90
35129;DHT22;21301;43.626;10.580;2022-11-15T04:25:43;8.40;99.90
35129;DHT22;21301;43.626;10.580;2022-11-15T04:28:28;8.40;99.90
35129;DHT22;21301;43.626;10.580;2022-11-15T04:31:13;8.40;99.90
35129;DHT22;21301;43.626;10.580;2022-11-15T04:33:57;8.40;99.90
35129;DHT22;21301;43.626;10.580;2022-11-15T04:36:42;8.40;99.90
35129;DHT22;21301;43.626;10.580;2022-11-15T04:39:45;8.40;99.90
35129;DHT22;21301;43.626;10.580;2022-11-15T04:42:30;8.40;99.90
35129;DHT22;21301;43.626;10.580;2022-11-15T04:45:15;8.40;99.90
35129;DHT22;21301;43.626;10.580;2022-11-15T04:47:59;8.40;99.90
35129;DHT22;21301;43.626;10.580;2022-11-15T04:50:44;8.40;99.90
35129;DHT22;21301;43.626;10.580;2022-11-15T04:53:29;8.50;99.90
35129;DHT22;21301;43.626;10.580;2022-11-15T04:56:13;8.50;99.90
35129;DHT22;21301;43.626;10.580;2022-11-15T04:58:57;8.60;99.90
35129;DHT22;21301;43.626;10.580;2022-11-15T05:01:41;8.60;99.90
35129;DHT22;21301;43.626;10.580;2022-11-15T05:04:25;8.60;99.90
35129;DHT22;21301;43.626;10.580;2022-11-15T05:07:10;8.60;99.90
35129;DHT22;21301;43.626;10.580;2022-11-15T05:09:54;8.60;99.90
35129;DHT22;21301;43.626;10.580;2022-11-15T05:12:39;8.60;99.90
35129;DHT22;21301;43.626;10.580;2022-11-15T05:15:23;8.70;99.90
35129;DHT22;21301;43.626;10.580;2022-11-15T05:18:08;8.70;99.90
35129;DHT22;21301;43.626;10.580;2022-11-15T05:20:53;8.80;99.90
35129;DHT22;21301;43.626;10.580;2022-11-15T05:23:37;8.90;99.90
35129;DHT22;21301;43.626;10.580;2022-11-15T05:26:21;8.90;99.90
35129;DHT22;21301;43.626;10.580;2022-11-15T05:29:05;9.00;99.90
35129;DHT22;21301;43.626;10.580;2022-11-15T05:31:49;9.00;99.90
35129;DHT22;21301;43.626;10.580;2022-11-15T05:34:34;9.00;99.90
35129;DHT22;21301;43.626;10.580;2022-11-15T05:37:19;9.00;99.90
35129;DHT22;21301;43.626;10.580;2022-11-15T05:40:04;9.10;99.90
35129;DHT22;21301;43.626;10.580;2022-11-15T05:42:48;9.10;99.90
35129;DHT22;21301;43.626;10.580;2022-11-15T05:45:34;9.20;99.90
35129;DHT22;21301;43.626;10.580;2022-11-15T05:48:18;9.20;99.90
35129;DHT22;21301;43.626;10.580;2022-11-15T05:51:04;9.20;99.90
35129;DHT22;21301;43.626;10.580;2022-11-15T05:53:52;9.20;99.90
35129;DHT22;21301;43.626;10.580;2022-11-15T05:56:37;9.20;99.90
35129;DHT22;21301;43.626;10.580;2022-11-15T05:59:21;9.20;99.90
35129;DHT22;21301;43.626;10.580;2022-11-15T06:02:06;9.20;99.90
35129;DHT22;21301;43.626;10.580;2022-11-15T06:04:50;9.20;99.90
35129;DHT22;21301;43.626;10.580;2022-11-15T06:07:38;9.20;99.90
35129;DHT22;21301;43.626;10.580;2022-11-15T06:10:22;9.30;99.90
35129;DHT22;21301;43.626;10.580;2022-11-15T06:13:06;9.20;99.90
35129;DHT22;21301;43.626;10.580;2022-11-15T06:15:50;9.30;99.90
35129;DHT22;21301;43.626;10.580;2022-11-15T06:18:35;9.30;99.90
35129;DHT22;21301;43.626;10.580;2022-11-15T06:21:19;9.30;99.90
35129;DHT22;21301;43.626;10.580;2022-11-15T06:24:05;9.40;99.90
35129;DHT22;21301;43.626;10.580;2022-11-15T06:26:50;9.50;99.90
35129;DHT22;21301;43.626;10.580;2022-11-15T06:29:34;9.50;99.90
35129;DHT22;21301;43.626;10.580;2022-11-15T06:32:18;9.60;99.90
35129;DHT22;21301;43.626;10.580;2022-11-15T06:35:02;9.60;99.90
35129;DHT22;21301;43.626;10.580;2022-11-15T06:37:47;9.70;99.90
35129;DHT22;21301;43.626;10.580;2022-11-15T06:40:34;9.70;99.90
35129;DHT22;21301;43.626;10.580;2022-11-15T06:43:18;9.80;99.90
35129;DHT22;21301;43.626;10.580;2022-11-15T06:46:04;9.80;99.90
35129;DHT22;21301;43.626;10.580;2022-11-15T06:48:51;9.90;99.90
35129;DHT22;21301;43.626;10.580;2022-11-15T06:51:36;9.90;99.90
35129;DHT22;21301;43.626;10.580;2022-11-15T06:54:20;9.90;99.90
35129;DHT22;21301;43.626;10.580;2022-11-15T06:57:05;9.90;99.90
35129;DHT22;21301;43.626;10.580;2022-11-15T06:59:49;9.90;99.90
35129;DHT22;21301;43.626;10.580;2022-11-15T07:02:33;10.00;99.90
35129;DHT22;21301;43.626;10.580;2022-11-15T07:05:17;10.00;99.90
35129;DHT22;21301;43.626;10.580;2022-11-15T07:08:01;10.00;99.90
35129;DHT22;21301;43.626;10.580;2022-11-15T07:10:45;10.00;99.90
35129;DHT22;21301;43.626;10.580;2022-11-15T07:13:30;10.10;99.90
35129;DHT22;21301;43.626;10.580;2022-11-15T07:16:17;10.10;99.90
35129;DHT22;21301;43.626;10.580;2022-11-15T07:19:01;10.10;99.90
35129;DHT22;21301;43.626;10.580;2022-11-15T07:21:45;10.20;99.90
35129;DHT22;21301;43.626;10.580;2022-11-15T07:24:31;10.20;99.90
35129;DHT22;21301;43.626;10.580;2022-11-15T07:27:15;10.20;99.90
35129;DHT22;21301;43.626;10.580;2022-11-15T07:29:59;10.20;99.90
35129;DHT22;21301;43.626;10.580;2022-11-15T07:32:44;10.20;99.90
35129;DHT22;21301;43.626;10.580;2022-11-15T07:35:28;10.30;99.90
35129;DHT22;21301;43.626;10.580;2022-11-15T07:38:14;10.30;99.90
35129;DHT22;21301;43.626;10.580;2022-11-15T07:41:00;10.30;99.90
35129;DHT22;21301;43.626;10.580;2022-11-15T07:43:45;10.30;99.90
35129;DHT22;21301;43.626;10.580;2022-11-15T07:46:29;10.30;99.90
35129;DHT22;21301;43.626;10.580;2022-11-15T07:49:14;10.30;99.90
35129;DHT22;21301;43.626;10.580;2022-11-15T07:51:59;10.30;99.90
35129;DHT22;21301;43.626;10.580;2022-11-15T07:54:43;10.40;99.90
35129;DHT22;21301;43.626;10.580;2022-11-15T07:57:27;10.40;99.90
35129;DHT22;21301;43.626;10.580;2022-11-15T08:00:11;10.50;99.90
35129;DHT22;21301;43.626;10.580;2022-11-15T08:03:07;10.50;99.90
35129;DHT22;21301;43.626;10.580;2022-11-15T08:05:52;10.60;99.90
35129;DHT22;21301;43.626;10.580;2022-11-15T08:08:37;10.60;99.90
35129;DHT22;21301;43.626;10.580;2022-11-15T08:11:21;10.60;99.90
35129;DHT22;21301;43.626;10.580;2022-11-15T08:14:05;10.70;99.90
35129;DHT22;21301;43.626;10.580;2022-11-15T08:16:49;10.70;99.90
35129;DHT22;21301;43.626;10.580;2022-11-15T08:19:33;10.70;99.90
35129;DHT22;21301;43.626;10.580;2022-11-15T08:22:18;10.70;99.90
35129;DHT22;21301;43.626;10.580;2022-11-15T08:25:02;10.60;99.90
35129;DHT22;21301;43.626;10.580;2022-11-15T08:27:47;10.60;99.90
35129;DHT22;21301;43.626;10.580;2022-11-15T08:30:36;10.60;99.90
35129;DHT22;21301;43.626;10.580;2022-11-15T08:33:22;10.60;99.90
35129;DHT22;21301;43.626;10.580;2022-11-15T08:36:10;10.60;99.90
35129;DHT22;21301;43.626;10.580;2022-11-15T08:38:55;10.60;99.90
35129;DHT22;21301;43.626;10.580;2022-11-15T08:41:40;10.60;99.90
35129;DHT22;21301;43.626;10.580;2022-11-15T08:44:24;10.70;99.90
35129;DHT22;21301;43.626;10.580;2022-11-15T08:47:11;10.70;99.90
35129;DHT22;21301;43.626;10.580;2022-11-15T08:49:56;10.70;99.90
35129;DHT22;21301;43.626;10.580;2022-11-15T08:52:40;10.70;99.90
35129;DHT22;21301;43.626;10.580;2022-11-15T08:55:24;10.60;99.90
35129;DHT22;21301;43.626;10.580;2022-11-15T08:58:09;10.60;99.90
35129;DHT22;21301;43.626;10.580;2022-11-15T09:00:53;10.60;99.90
35129;DHT22;21301;43.626;10.580;2022-11-15T09:03:39;10.60;99.90
35129;DHT22;21301;43.626;10.580;2022-11-15T09:06:23;10.60;99.90
35129;DHT22;21301;43.626;10.580;2022-11-15T09:09:08;10.50;99.90
35129;DHT22;21301;43.626;10.580;2022-11-15T09:11:52;10.50;99.90
35129;DHT22;21301;43.626;10.580;2022-11-15T09:14:36;10.50;99.90
35129;DHT22;21301;43.626;10.580;2022-11-15T09:17:20;10.50;99.90
35129;DHT22;21301;43.626;10.580;2022-11-15T09:20:05;10.50;99.90
35129;DHT22;21301;43.626;10.580;2022-11-15T09:22:50;10.50;99.90
35129;DHT22;21301;43.626;10.580;2022-11-15T09:25:34;10.50;99.90
35129;DHT22;21301;43.626;10.580;2022-11-15T09:28:18;10.50;99.90
35129;DHT22;21301;43.626;10.580;2022-11-15T09:31:03;10.40;99.90
35129;DHT22;21301;43.626;10.580;2022-11-15T09:33:48;10.50;99.90
35129;DHT22;21301;43.626;10.580;2022-11-15T09:36:32;10.50;99.90
35129;DHT22;21301;43.626;10.580;2022-11-15T09:39:16;10.50;99.90
35129;DHT22;21301;43.626;10.580;2022-11-15T09:42:04;10.50;99.90
35129;DHT22;21301;43.626;10.580;2022-11-15T09:51:22;10.60;99.90
35129;DHT22;21301;43.626;10.580;2022-11-15T09:56:35;10.60;99.90
35129;DHT22;21301;43.626;10.580;2022-11-15T09:59:13;10.60;99.90
35129;DHT22;21301;43.626;10.580;2022-11-15T10:04:30;10.70;99.90
35129;DHT22;21301;43.626;10.580;2022-11-15T10:09:43;10.70;99.90
35129;DHT22;21301;43.626;10.580;2022-11-15T10:12:12;10.70;99.90
35129;DHT22;21301;43.626;10.580;2022-11-15T10:14:38;10.70;99.90
35129;DHT22;21301;43.626;10.580;2022-11-15T10:17:39;10.70;99.90
35129;DHT22;21301;43.626;10.580;2022-11-15T10:22:48;10.70;99.90
35129;DHT22;21301;43.626;10.580;2022-11-15T10:27:42;10.80;99.90
35129;DHT22;21301;43.626;10.580;2022-11-15T10:30:14;10.70;99.90
35129;DHT22;21301;43.626;10.580;2022-11-15T10:32:40;10.70;99.90
35129;DHT22;21301;43.626;10.580;2022-11-15T10:35:28;10.80;99.90
35129;DHT22;21301;43.626;10.580;2022-11-15T10:38:04;10.80;99.90
35129;DHT22;21301;43.626;10.580;2022-11-15T10:40:29;10.80;99.90
35129;DHT22;21301;43.626;10.580;2022-11-15T10:43:15;10.80;99.90
35129;DHT22;21301;43.626;10.580;2022-11-15T10:45:41;10.90;99.90
35129;DHT22;21301;43.626;10.580;2022-11-15T10:48:28;10.90;99.90
35129;DHT22;21301;43.626;10.580;2022-11-15T10:50:53;10.90;99.90
35129;DHT22;21301;43.626;10.580;2022-11-15T10:53:25;10.90;99.90
35129;DHT22;21301;43.626;10.580;2022-11-15T10:55:53;11.00;99.90
35129;DHT22;21301;43.626;10.580;2022-11-15T10:58:21;11.00;99.90
35129;DHT22;21301;43.626;10.580;2022-11-15T11:00:48;11.00;99.90
35129;DHT22;21301;43.626;10.580;2022-11-15T11:03:30;11.00;99.90
35129;DHT22;21301;43.626;10.580;2022-11-15T11:06:29;11.00;99.90
35129;DHT22;21301;43.626;10.580;2022-11-15T11:08:56;11.00;99.90
35129;DHT22;21301;43.626;10.580;2022-11-15T11:11:22;11.10;99.90
35129;DHT22;21301;43.626;10.580;2022-11-15T11:13:47;11.00;99.90
35129;DHT22;21301;43.626;10.580;2022-11-15T11:21:11;11.10;99.90
35129;DHT22;21301;43.626;10.580;2022-11-15T11:26:17;11.10;99.90
35129;DHT22;21301;43.626;10.580;2022-11-15T11:31:34;11.10;99.90
35129;DHT22;21301;43.626;10.580;2022-11-15T11:36:50;11.30;99.90
35129;DHT22;21301;43.626;10.580;2022-11-15T11:57:02;11.50;99.90
35129;DHT22;21301;43.626;10.580;2022-11-15T11:59:37;11.50;99.90
35129;DHT22;21301;43.626;10.580;2022-11-15T12:02:18;11.50;99.90
35129;DHT22;21301;43.626;10.580;2022-11-15T12:04:47;11.50;99.90
35129;DHT22;21301;43.626;10.580;2022-11-15T12:07:24;11.50;99.90
35129;DHT22;21301;43.626;10.580;2022-11-15T12:12:35;11.60;99.90
35129;DHT22;21301;43.626;10.580;2022-11-15T12:17:33;11.60;99.90
35129;DHT22;21301;43.626;10.580;2022-11-15T12:20:00;11.60;99.90
35129;DHT22;21301;43.626;10.580;2022-11-15T12:29:53;11.60;99.90
35129;DHT22;21301;43.626;10.580;2022-11-15T12:34:54;11.60;99.90
35129;DHT22;21301;43.626;10.580;2022-11-15T12:47:23;11.60;99.90
35129;DHT22;21301;43.626;10.580;2022-11-15T12:49:49;11.60;99.90
35129;DHT22;21301;43.626;10.580;2022-11-15T12:52:15;11.60;99.90
35129;DHT22;21301;43.626;10.580;2022-11-15T12:59:54;11.60;99.90
35129;DHT22;21301;43.626;10.580;2022-11-15T13:02:22;11.60;99.90
35129;DHT22;21301;43.626;10.580;2022-11-15T13:04:48;11.50;99.90
35129;DHT22;21301;43.626;10.580;2022-11-15T13:09:58;11.50;99.90
35129;DHT22;21301;43.626;10.580;2022-11-15T13:14:56;11.50;99.90
35129;DHT22;21301;43.626;10.580;2022-11-15T13:17:24;11.50;99.90
35129;DHT22;21301;43.626;10.580;2022-11-15T13:19:57;11.60;99.90
35129;DHT22;21301;43.626;10.580;2022-11-15T13:22:24;11.60;99.90
35129;DHT22;21301;43.626;10.580;2022-11-15T13:25:15;11.60;99.90
35129;DHT22;21301;43.626;10.580;2022-11-15T13:27:46;11.60;99.90
35129;DHT22;21301;43.626;10.580;2022-11-15T13:30:14;11.60;99.90
35129;DHT22;21301;43.626;10.580;2022-11-15T13:32:41;11.70;99.90
35129;DHT22;21301;43.626;10.580;2022-11-15T13:35:07;11.70;99.90
35129;DHT22;21301;43.626;10.580;2022-11-15T13:37:32;11.70;99.90
35129;DHT22;21301;43.626;10.580;2022-11-15T13:42:43;11.70;99.90
35129;DHT22;21301;43.626;10.580;2022-11-15T13:45:12;11.70;99.90
35129;DHT22;21301;43.626;10.580;2022-11-15T13:47:38;11.80;99.90
35129;DHT22;21301;43.626;10.580;2022-11-15T13:50:04;11.80;99.90
35129;DHT22;21301;43.626;10.580;2022-11-15T13:52:31;11.80;99.90
35129;DHT22;21301;43.626;10.580;2022-11-15T13:55:02;11.80;99.90
35129;DHT22;21301;43.626;10.580;2022-11-15T13:57:37;11.80;99.90
35129;DHT22;21301;43.626;10.580;2022-11-15T14:00:05;11.70;99.90
35129;DHT22;21301;43.626;10.580;2022-11-15T14:02:37;11.70;99.90
35129;DHT22;21301;43.626;10.580;2022-11-15T14:05:05;11.70;99.90
35129;DHT22;21301;43.626;10.580;2022-11-15T14:07:38;11.70;99.90
35129;DHT22;21301;43.626;10.580;2022-11-15T14:10:24;11.70;99.90
35129;DHT22;21301;43.626;10.580;2022-11-15T14:12:50;11.70;99.90
35129;DHT22;21301;43.626;10.580;2022-11-15T14:17:51;11.70;99.90
35129;DHT22;21301;43.626;10.580;2022-11-15T14:20:36;11.70;99.90
35129;DHT22;21301;43.626;10.580;2022-11-15T14:23:04;11.70;99.90
35129;DHT22;21301;43.626;10.580;2022-11-15T14:25:33;11.70;99.90
35129;DHT22;21301;43.626;10.580;2022-11-15T14:30:33;11.70;99.90
35129;DHT22;21301;43.626;10.580;2022-11-15T14:32:59;11.70;99.90
35129;DHT22;21301;43.626;10.580;2022-11-15T14:35:25;11.70;99.90
35129;DHT22;21301;43.626;10.580;2022-11-15T14:37:51;11.70;99.90
35129;DHT22;21301;43.626;10.580;2022-11-15T14:40:18;11.80;99.90
35129;DHT22;21301;43.626;10.580;2022-11-15T14:42:44;11.80;99.90
35129;DHT22;21301;43.626;10.580;2022-11-15T14:45:13;11.80;99.90
35129;DHT22;21301;43.626;10.580;2022-11-15T14:47:39;11.70;99.90
35129;DHT22;21301;43.626;10.580;2022-11-15T14:50:04;11.70;99.90
35129;DHT22;21301;43.626;10.580;2022-11-15T14:52:31;11.80;99.90
35129;DHT22;21301;43.626;10.580;2022-11-15T14:55:02;11.80;99.90
35129;DHT22;21301;43.626;10.580;2022-11-15T14:57:28;11.80;99.90
35129;DHT22;21301;43.626;10.580;2022-11-15T14:59:54;11.80;99.90
35129;DHT22;21301;43.626;10.580;2022-11-15T15:02:23;11.70;99.90
35129;DHT22;21301;43.626;10.580;2022-11-15T15:04:49;11.70;99.90
35129;DHT22;21301;43.626;10.580;2022-11-15T15:07:15;11.70;99.90
35129;DHT22;21301;43.626;10.580;2022-11-15T15:09:41;11.70;99.90
35129;DHT22;21301;43.626;10.580;2022-11-15T15:12:17;11.70;99.90
35129;DHT22;21301;43.626;10.580;2022-11-15T15:14:43;11.70;99.90
35129;DHT22;21301;43.626;10.580;2022-11-15T15:17:09;11.70;99.90
35129;DHT22;21301;43.626;10.580;2022-11-15T15:19:34;11.70;99.90
35129;DHT22;21301;43.626;10.580;2022-11-15T15:22:00;11.70;99.90
35129;DHT22;21301;43.626;10.580;2022-11-15T15:24:26;11.70;99.90
35129;DHT22;21301;43.626;10.580;2022-11-15T15:26:51;11.70;99.90
35129;DHT22;21301;43.626;10.580;2022-11-15T15:29:17;11.70;99.90
35129;DHT22;21301;43.626;10.580;2022-11-15T15:31:42;11.80;99.90
35129;DHT22;21301;43.626;10.580;2022-11-15T15:34:08;11.70;99.90
35129;DHT22;21301;43.626;10.580;2022-11-15T15:36:34;11.70;99.90
35129;DHT22;21301;43.626;10.580;2022-11-15T15:38:59;11.70;99.90
35129;DHT22;21301;43.626;10.580;2022-11-15T15:41:25;11.70;99.90
35129;DHT22;21301;43.626;10.580;2022-11-15T15:43:51;11.70;99.90
35129;DHT22;21301;43.626;10.580;2022-11-15T15:46:17;11.70;99.90
35129;DHT22;21301;43.626;10.580;2022-11-15T15:48:43;11.70;99.90
35129;DHT22;21301;43.626;10.580;2022-11-15T15:51:09;11.70;99.90
35129;DHT22;21301;43.626;10.580;2022-11-15T15:53:35;11.70;99.90
35129;DHT22;21301;43.626;10.580;2022-11-15T15:56:01;11.70;99.90
35129;DHT22;21301;43.626;10.580;2022-11-15T15:58:27;11.60;99.90
35129;DHT22;21301;43.626;10.580;2022-11-15T16:00:53;11.70;99.90
35129;DHT22;21301;43.626;10.580;2022-11-15T16:03:18;11.70;99.90
35129;DHT22;21301;43.626;10.580;2022-11-15T16:05:44;11.70;99.90
35129;DHT22;21301;43.626;10.580;2022-11-15T16:08:16;11.70;99.90
35129;DHT22;21301;43.626;10.580;2022-11-15T16:10:42;11.70;99.90
35129;DHT22;21301;43.626;10.580;2022-11-15T16:13:08;11.70;99.90
35129;DHT22;21301;43.626;10.580;2022-11-15T16:15:34;11.70;99.90
35129;DHT22;21301;43.626;10.580;2022-11-15T16:18:00;11.70;99.90
35129;DHT22;21301;43.626;10.580;2022-11-15T16:20:29;11.70;99.90
35129;DHT22;21301;43.626;10.580;2022-11-15T16:22:55;11.70;99.90
35129;DHT22;21301;43.626;10.580;2022-11-15T16:25:20;11.70;99.90
35129;DHT22;21301;43.626;10.580;2022-11-15T16:27:46;11.70;99.90
35129;DHT22;21301;43.626;10.580;2022-11-15T16:30:16;11.70;99.90
35129;DHT22;21301;43.626;10.580;2022-11-15T16:32:42;11.70;99.90
35129;DHT22;21301;43.626;10.580;2022-11-15T16:35:11;11.70;99.90
35129;DHT22;21301;43.626;10.580;2022-11-15T16:37:38;11.70;99.90
35129;DHT22;21301;43.626;10.580;2022-11-15T16:40:15;11.70;99.90
35129;DHT22;21301;43.626;10.580;2022-11-15T16:42:42;11.70;99.90
35129;DHT22;21301;43.626;10.580;2022-11-15T16:45:10;11.70;99.90
35129;DHT22;21301;43.626;10.580;2022-11-15T16:47:36;11.70;99.90
35129;DHT22;21301;43.626;10.580;2022-11-15T16:50:02;11.70;99.90
35129;DHT22;21301;43.626;10.580;2022-11-15T16:52:28;11.70;99.90
35129;DHT22;21301;43.626;10.580;2022-11-15T16:54:53;11.80;99.90
35129;DHT22;21301;43.626;10.580;2022-11-15T16:57:19;11.70;99.90
35129;DHT22;21301;43.626;10.580;2022-11-15T16:59:45;11.80;99.90
35129;DHT22;21301;43.626;10.580;2022-11-15T17:02:11;11.80;99.90
35129;DHT22;21301;43.626;10.580;2022-11-15T17:04:37;11.80;99.90
35129;DHT22;21301;43.626;10.580;2022-11-15T17:07:02;11.80;99.90
35129;DHT22;21301;43.626;10.580;2022-11-15T17:09:28;11.80;99.90
35129;DHT22;21301;43.626;10.580;2022-11-15T17:11:54;11.90;99.90
35129;DHT22;21301;43.626;10.580;2022-11-15T17:14:20;11.90;99.90
35129;DHT22;21301;43.626;10.580;2022-11-15T17:16:45;11.90;99.90
35129;DHT22;21301;43.626;10.580;2022-11-15T17:19:18;11.90;99.90
35129;DHT22;21301;43.626;10.580;2022-11-15T17:21:44;11.90;99.90
35129;DHT22;21301;43.626;10.580;2022-11-15T17:24:10;11.90;99.90
35129;DHT22;21301;43.626;10.580;2022-11-15T17:26:36;11.90;99.90
35129;DHT22;21301;43.626;10.580;2022-11-15T17:29:02;11.90;99.90
35129;DHT22;21301;43.626;10.580;2022-11-15T17:31:32;11.90;99.90
35129;DHT22;21301;43.626;10.580;2022-11-15T17:34:02;11.90;99.90
35129;DHT22;21301;43.626;10.580;2022-11-15T17:36:28;11.90;99.90
35129;DHT22;21301;43.626;10.580;2022-11-15T17:38:54;11.90;99.90
35129;DHT22;21301;43.626;10.580;2022-11-15T17:41:20;11.90;99.90
35129;DHT22;21301;43.626;10.580;2022-11-15T17:43:45;11.90;99.90
35129;DHT22;21301;43.626;10.580;2022-11-15T17:46:16;11.90;99.90
35129;DHT22;21301;43.626;10.580;2022-11-15T17:48:42;11.90;99.90
35129;DHT22;21301;43.626;10.580;2022-11-15T17:51:13;11.90;99.90
35129;DHT22;21301;43.626;10.580;2022-11-15T17:53:39;11.90;99.90
35129;DHT22;21301;43.626;10.580;2022-11-15T17:56:12;11.90;99.90
35129;DHT22;21301;43.626;10.580;2022-11-15T17:58:39;11.90;99.90
35129;DHT22;21301;43.626;10.580;2022-11-15T18:03:32;11.90;99.90
35129;DHT22;21301;43.626;10.580;2022-11-15T18:05:58;11.90;99.90
35129;DHT22;21301;43.626;10.580;2022-11-15T18:08:24;12.00;99.90
35129;DHT22;21301;43.626;10.580;2022-11-15T18:10:49;11.90;99.90
35129;DHT22;21301;43.626;10.580;2022-11-15T18:13:15;11.90;99.90
35129;DHT22;21301;43.626;10.580;2022-11-15T18:15:41;11.90;99.90
35129;DHT22;21301;43.626;10.580;2022-11-15T18:18:06;12.00;99.90
35129;DHT22;21301;43.626;10.580;2022-11-15T18:20:32;12.00;99.90
35129;DHT22;21301;43.626;10.580;2022-11-15T18:22:58;12.00;99.90
35129;DHT22;21301;43.626;10.580;2022-11-15T18:25:23;12.00;99.90
35129;DHT22;21301;43.626;10.580;2022-11-15T18:27:49;12.00;99.90
35129;DHT22;21301;43.626;10.580;2022-11-15T18:30:19;12.00;99.90
35129;DHT22;21301;43.626;10.580;2022-11-15T18:32:45;12.00;99.90
35129;DHT22;21301;43.626;10.580;2022-11-15T18:35:11;12.00;99.90
35129;DHT22;21301;43.626;10.580;2022-11-15T18:37:36;12.00;99.90
35129;DHT22;21301;43.626;10.580;2022-11-15T18:40:02;12.00;99.90
35129;DHT22;21301;43.626;10.580;2022-11-15T18:42:28;12.10;99.90